createdAt,value
2022-11-28T00:01:35.602Z,1.47
2022-11-28T00:04:04.098Z,1.30
2022-11-28T00:06:33.514Z,1.10
2022-11-28T00:09:02.013Z,1.23
2022-11-28T00:11:29.813Z,1.60
2022-11-28T00:14:48.602Z,1.50
2022-11-28T00:29:49.090Z,2.60
2022-11-28T00:35:44.697Z,1.83
2022-11-28T00:38:12.525Z,1.27
2022-11-28T00:40:41.857Z,2.10
2022-11-28T00:43:11.686Z,1.90
2022-11-28T00:45:39.716Z,1.90
2022-11-28T00:48:07.713Z,1.90
2022-11-28T00:50:35.522Z,1.73
2022-11-28T00:53:03.330Z,1.73
2022-11-28T00:55:31.239Z,1.77
2022-11-28T00:58:00.632Z,1.43
2022-11-28T01:00:41.843Z,1.93
2022-11-28T01:03:14.705Z,1.53
2022-11-28T01:05:44.635Z,1.97
2022-11-28T01:08:20.323Z,1.30
2022-11-28T01:10:48.517Z,1.50
2022-11-28T01:13:28.216Z,1.60
2022-11-28T01:15:58.787Z,1.60
2022-11-28T01:18:27.849Z,1.17
2022-11-28T01:21:04.425Z,1.83
2022-11-28T01:23:32.796Z,1.40
2022-11-28T01:26:12.420Z,1.57
2022-11-28T01:28:41.976Z,1.50
2022-11-28T01:31:14.388Z,1.60
2022-11-28T01:33:43.038Z,2.97
2022-11-28T01:36:13.056Z,1.73
2022-11-28T01:38:45.258Z,1.87
2022-11-28T01:41:16.699Z,1.40
2022-11-28T01:44:06.458Z,1.30
2022-11-28T01:46:46.777Z,1.53
2022-11-28T01:49:25.866Z,1.70
2022-11-28T01:51:59.140Z,1.40
2022-11-28T01:54:29.128Z,2.30
2022-11-28T01:57:01.586Z,2.33
2022-11-28T01:59:38.489Z,1.70
2022-11-28T02:02:31.740Z,1.60
2022-11-28T02:05:04.010Z,2.03
2022-11-28T02:07:33.497Z,1.80
2022-11-28T02:10:03.857Z,1.80
2022-11-28T02:13:08.525Z,2.10
2022-11-28T02:16:24.062Z,2.30
2022-11-28T02:19:37.459Z,2.07
2022-11-28T02:22:09.706Z,2.10
2022-11-28T03:09:36.801Z,1.90
2022-11-28T03:21:04.159Z,1.60
2022-11-28T03:32:05.862Z,1.23
2022-11-28T03:40:08.669Z,1.70
2022-11-28T04:31:18.779Z,1.20
2022-11-28T04:54:36.377Z,1.80
2022-11-28T04:58:35.919Z,1.30
2022-11-28T05:30:11.068Z,0.90
2022-11-28T05:33:01.178Z,1.17
2022-11-28T05:35:29.051Z,0.90
2022-11-28T05:37:56.877Z,0.93
2022-11-28T05:40:24.694Z,1.10
2022-11-28T05:42:52.574Z,1.20
2022-11-28T05:45:21.910Z,1.10
2022-11-28T05:47:50.107Z,1.13
2022-11-28T05:50:17.989Z,1.33
2022-11-28T05:52:46.312Z,1.00
2022-11-28T05:55:14.151Z,0.97
2022-11-28T05:57:42.082Z,1.47
2022-11-28T06:00:10.859Z,1.77
2022-11-28T06:02:41.504Z,1.67
2022-11-28T06:05:34.591Z,2.13
2022-11-28T06:07:57.461Z,2.27
2022-11-28T06:10:25.476Z,2.23
2022-11-28T06:12:53.656Z,1.60
2022-11-28T06:15:21.462Z,1.73
2022-11-28T06:17:50.705Z,1.30
2022-11-28T06:20:18.808Z,2.20
2022-11-28T06:22:48.014Z,1.60
2022-11-28T06:25:18.928Z,1.37
2022-11-28T06:27:49.329Z,1.23
2022-11-28T06:30:19.107Z,1.53
2022-11-28T06:32:47.477Z,1.30
2022-11-28T06:35:16.829Z,1.60
2022-11-28T06:37:46.271Z,1.53
2022-11-28T06:40:22.107Z,1.90
2022-11-28T06:42:51.227Z,1.80
2022-11-28T06:45:19.247Z,1.80
2022-11-28T06:47:47.305Z,1.77
2022-11-28T06:50:16.945Z,1.87
2022-11-28T06:52:46.868Z,1.40
2022-11-28T06:55:14.690Z,1.23
2022-11-28T06:57:42.507Z,2.17
2022-11-28T07:00:11.296Z,1.67
2022-11-28T07:02:39.303Z,2.37
2022-11-28T07:05:08.416Z,1.50
2022-11-28T07:07:52.763Z,2.13
2022-11-28T07:10:21.407Z,1.90
2022-11-28T07:12:54.618Z,1.93
2022-11-28T07:15:22.780Z,1.53
2022-11-28T07:17:51.221Z,1.87
2022-11-28T07:20:19.826Z,1.43
2022-11-28T07:22:50.198Z,1.10
2022-11-28T07:25:18.216Z,1.17
2022-11-28T07:27:46.121Z,1.07
2022-11-28T07:30:14.544Z,1.23
2022-11-28T07:32:43.522Z,1.33
2022-11-28T07:35:12.241Z,1.10
2022-11-28T07:37:40.135Z,1.20
2022-11-28T07:40:10.328Z,1.80
2022-11-28T07:42:39.202Z,1.20
2022-11-28T07:45:07.842Z,1.60
2022-11-28T07:47:35.708Z,1.37
2022-11-28T07:50:03.706Z,1.37
2022-11-28T07:52:31.876Z,0.90
2022-11-28T07:54:59.908Z,1.27
2022-11-28T07:57:30.567Z,1.00
2022-11-28T07:59:58.497Z,1.10
2022-11-28T08:02:28.071Z,1.50
2022-11-28T08:05:08.732Z,1.10
2022-11-28T08:10:51.662Z,1.33
2022-11-28T08:13:36.728Z,1.30
2022-11-28T08:16:14.645Z,1.30
2022-11-28T08:21:45.472Z,1.40
2022-11-28T08:24:29.361Z,1.57
2022-11-28T08:27:12.091Z,1.17
2022-11-28T08:29:49.097Z,1.20
2022-11-28T08:35:53.514Z,1.37
2022-11-28T08:38:29.209Z,1.80
2022-11-28T08:41:45.547Z,1.83
2022-11-28T08:44:52.438Z,1.73
2022-11-28T08:47:35.791Z,1.50
2022-11-28T08:50:37.563Z,1.80
2022-11-28T08:53:22.288Z,1.77
2022-11-28T08:55:53.186Z,1.80
2022-11-28T08:58:26.855Z,1.57
2022-11-28T09:01:32.362Z,1.50
2022-11-28T09:04:33.773Z,2.50
2022-11-28T09:07:22.254Z,2.53
2022-11-28T09:09:54.229Z,1.40
2022-11-28T09:12:53.335Z,1.50
2022-11-28T09:15:53.874Z,1.53
2022-11-28T09:18:28.780Z,1.07
2022-11-28T09:21:24.008Z,1.53
2022-11-28T09:26:57.105Z,1.20
2022-11-28T09:29:32.239Z,1.30
2022-11-28T09:32:15.548Z,1.50
2022-11-28T09:34:49.328Z,1.37
2022-11-28T09:37:26.276Z,1.80
2022-11-28T09:40:13.732Z,1.10
2022-11-28T09:48:52.447Z,2.07
2022-11-28T09:51:33.840Z,1.80
2022-11-28T09:57:35.169Z,2.00
2022-11-28T10:00:22.948Z,1.43
2022-11-28T10:03:20.542Z,1.63
2022-11-28T10:06:17.084Z,1.80
2022-11-28T10:09:14.865Z,1.83
2022-11-28T10:12:05.441Z,1.87
2022-11-28T10:15:23.882Z,1.50
2022-11-28T10:21:06.318Z,1.50
2022-11-28T10:23:40.510Z,1.73
2022-11-28T10:26:26.043Z,1.60
2022-11-28T10:29:01.997Z,1.30
2022-11-28T10:31:36.912Z,1.23
2022-11-28T10:34:26.864Z,1.20
2022-11-28T10:37:02.788Z,1.50
2022-11-28T10:39:35.483Z,1.40
2022-11-28T10:42:16.264Z,1.30
2022-11-28T10:45:02.433Z,1.53
2022-11-28T10:47:57.080Z,1.57
2022-11-28T10:50:33.761Z,1.80
2022-11-28T10:53:09.034Z,1.40
2022-11-28T10:55:45.757Z,1.80
2022-11-28T10:58:21.443Z,1.47
2022-11-28T11:00:55.956Z,1.70
2022-11-28T11:03:30.839Z,1.93
2022-11-28T11:05:58.690Z,1.73
2022-11-28T11:08:29.161Z,1.67
2022-11-28T11:11:04.997Z,1.50
2022-11-28T11:13:35.860Z,1.20
2022-11-28T11:16:07.856Z,2.17
2022-11-28T11:18:56.519Z,1.87
2022-11-28T11:21:27.856Z,1.40
2022-11-28T11:24:22.519Z,1.77
2022-11-28T11:27:01.137Z,1.40
2022-11-28T11:29:37.556Z,1.83
2022-11-28T11:32:24.186Z,1.30
2022-11-28T11:34:57.964Z,1.70
2022-11-28T11:37:39.598Z,1.17
2022-11-28T11:40:23.643Z,1.43
2022-11-28T11:42:59.430Z,1.40
2022-11-28T11:45:34.213Z,1.60
2022-11-28T11:48:13.808Z,1.63
2022-11-28T11:50:55.495Z,1.37
2022-11-28T11:53:37.219Z,1.50
2022-11-28T11:56:07.000Z,1.30
2022-11-28T11:58:42.367Z,1.13
2022-11-28T12:01:19.269Z,1.33
2022-11-28T12:03:57.570Z,1.50
2022-11-28T12:06:34.184Z,1.40
2022-11-28T12:09:24.424Z,2.00
2022-11-28T12:12:00.231Z,1.50
2022-11-28T12:14:35.276Z,1.37
2022-11-28T12:17:47.870Z,1.30
2022-11-28T12:20:44.414Z,1.43
2022-11-28T12:23:38.810Z,1.27
2022-11-28T12:26:23.375Z,1.77
2022-11-28T12:29:09.388Z,1.70
2022-11-28T12:32:04.384Z,1.40
2022-11-28T12:35:04.105Z,1.20
2022-11-28T12:40:51.285Z,1.50
2022-11-28T12:43:32.385Z,1.40
2022-11-28T12:46:07.383Z,1.37
2022-11-28T12:49:08.872Z,1.60
2022-11-28T12:51:53.259Z,1.27
2022-11-28T12:54:43.160Z,1.50
2022-11-28T12:57:25.462Z,1.47
2022-11-28T13:00:06.650Z,2.03
2022-11-28T13:02:51.242Z,2.20
2022-11-28T13:05:31.611Z,1.30
2022-11-28T13:08:31.919Z,1.43
2022-11-28T13:11:13.787Z,1.60
2022-11-28T13:13:48.116Z,1.60
2022-11-28T13:16:27.588Z,2.03
2022-11-28T13:19:02.221Z,1.43
2022-11-28T13:21:39.989Z,1.53
2022-11-28T13:24:17.914Z,1.60
2022-11-28T13:27:00.020Z,1.70
2022-11-28T13:29:40.258Z,1.50
2022-11-28T13:32:18.223Z,1.40
2022-11-28T13:34:50.551Z,1.73
2022-11-28T13:40:25.548Z,1.70
2022-11-28T13:43:08.199Z,1.53
2022-11-28T13:45:39.691Z,2.13
2022-11-28T13:51:38.019Z,1.20
2022-11-28T13:54:43.439Z,1.53
2022-11-28T13:57:21.764Z,1.40
2022-11-28T14:00:05.276Z,1.53
2022-11-28T14:02:47.545Z,1.50
2022-11-28T14:05:29.023Z,1.53
2022-11-28T14:07:59.411Z,1.40
2022-11-28T14:10:47.774Z,1.67
2022-11-28T14:13:40.956Z,1.63
2022-11-28T14:16:32.449Z,1.43
2022-11-28T14:19:11.883Z,1.77
2022-11-28T14:21:54.402Z,1.70
2022-11-28T14:24:35.086Z,1.37
2022-11-28T14:27:05.447Z,1.77
2022-11-28T14:29:37.263Z,1.50
2022-11-28T14:32:29.802Z,1.53
2022-11-28T14:34:59.872Z,1.30
2022-11-28T14:37:57.959Z,1.50
2022-11-28T14:41:05.754Z,1.87
2022-11-28T14:43:35.831Z,1.60
2022-11-28T14:46:36.611Z,1.50
2022-11-28T14:49:24.239Z,2.27
2022-11-28T14:52:37.143Z,1.73
2022-11-28T14:55:00.403Z,1.57
2022-11-28T14:57:30.828Z,1.37
2022-11-28T15:00:02.059Z,1.43
2022-11-28T15:03:03.032Z,1.87
2022-11-28T15:05:40.023Z,1.67
2022-11-28T15:08:27.161Z,2.17
2022-11-28T15:11:07.443Z,1.43
2022-11-28T15:13:51.333Z,1.70
2022-11-28T15:16:21.445Z,1.93
2022-11-28T15:18:55.153Z,1.50
2022-11-28T15:21:25.708Z,1.63
2022-11-28T15:23:55.668Z,1.43
2022-11-28T15:26:31.244Z,2.03
2022-11-28T15:29:19.023Z,1.43
2022-11-28T15:31:48.368Z,3.07
2022-11-28T15:34:28.236Z,7.57
2022-11-28T15:37:02.020Z,8.40
2022-11-28T15:39:37.013Z,6.63
2022-11-28T15:42:08.107Z,6.67
2022-11-28T15:44:39.956Z,7.13
2022-11-28T15:47:19.261Z,6.47
2022-11-28T15:49:47.430Z,7.20
2022-11-28T15:52:18.606Z,5.40
2022-11-28T15:54:51.514Z,5.70
2022-11-28T15:57:20.724Z,7.07
2022-11-28T15:59:48.651Z,8.53
2022-11-28T16:02:22.994Z,7.57
2022-11-28T16:04:54.831Z,7.20
2022-11-28T16:07:24.308Z,7.53
2022-11-28T16:09:57.514Z,6.23
2022-11-28T16:12:25.587Z,5.73
2022-11-28T16:14:58.762Z,5.90
2022-11-28T16:17:29.372Z,6.50
2022-11-28T16:20:03.671Z,5.60
2022-11-28T16:22:36.346Z,7.77
2022-11-28T16:25:20.022Z,7.50
2022-11-28T16:27:48.985Z,8.10
2022-11-28T16:30:36.805Z,8.00
2022-11-28T16:33:25.731Z,8.43
2022-11-28T16:35:54.911Z,10.50
2022-11-28T16:38:24.618Z,10.77
2022-11-28T16:41:00.098Z,10.23
2022-11-28T16:43:35.351Z,11.87
2022-11-28T16:46:06.569Z,10.93
2022-11-28T16:48:36.696Z,10.77
2022-11-28T16:54:01.862Z,10.53
2022-11-28T16:56:45.051Z,11.63
2022-11-28T16:59:14.877Z,10.10
2022-11-28T17:01:44.998Z,10.50
2022-11-28T17:04:21.951Z,12.13
2022-11-28T17:06:50.517Z,13.83
2022-11-28T17:09:20.107Z,15.40
2022-11-28T17:11:55.538Z,18.97
2022-11-28T17:14:23.502Z,16.27
2022-11-28T17:16:53.706Z,15.73
2022-11-28T17:19:21.688Z,15.43
2022-11-28T17:21:51.920Z,18.60
2022-11-28T17:24:23.456Z,14.87
2022-11-28T17:26:52.708Z,13.47
2022-11-28T17:29:21.082Z,13.60
2022-11-28T17:31:49.529Z,13.93
2022-11-28T17:34:19.603Z,13.77
2022-11-28T17:36:47.860Z,16.10
2022-11-28T17:39:17.138Z,17.47
2022-11-28T17:41:46.959Z,17.73
2022-11-28T17:44:19.863Z,15.63
2022-11-28T17:46:48.053Z,15.23
2022-11-28T17:49:16.061Z,15.97
2022-11-28T17:51:44.333Z,15.33
2022-11-28T17:54:14.143Z,18.47
2022-11-28T17:56:42.027Z,16.27
2022-11-28T17:59:13.127Z,16.87
2022-11-28T18:01:41.181Z,17.37
2022-11-28T18:04:09.163Z,14.03
2022-11-28T18:06:37.258Z,20.00
2022-11-28T18:09:11.647Z,18.33
2022-11-28T18:11:40.391Z,20.30
2022-11-28T18:14:08.687Z,19.40
2022-11-28T18:16:40.132Z,18.70
2022-11-28T18:19:08.060Z,14.20
2022-11-28T18:21:35.888Z,15.53
2022-11-28T18:24:04.739Z,17.13
2022-11-28T18:26:32.663Z,16.83
2022-11-28T18:29:01.359Z,18.67
2022-11-28T18:31:31.222Z,17.97
2022-11-28T18:34:03.527Z,18.20
2022-11-28T18:36:33.783Z,18.37
2022-11-28T18:39:03.179Z,19.43
2022-11-28T18:41:31.482Z,20.33
2022-11-28T18:44:00.906Z,16.43
2022-11-28T18:46:29.693Z,16.87
2022-11-28T18:48:57.851Z,18.83
2022-11-28T18:51:29.554Z,15.77
2022-11-28T18:53:58.660Z,15.10
2022-11-28T18:56:29.264Z,18.80
2022-11-28T18:58:58.656Z,14.23
2022-11-28T19:01:30.210Z,12.07
2022-11-28T19:04:00.470Z,11.23
2022-11-28T19:06:30.365Z,11.50
2022-11-28T19:09:00.832Z,9.63
2022-11-28T19:11:29.545Z,9.07
2022-11-28T19:13:57.473Z,9.67
2022-11-28T19:16:26.937Z,8.80
2022-11-28T19:18:55.327Z,8.93
2022-11-28T19:21:25.490Z,7.60
2022-11-28T19:23:55.946Z,9.83
2022-11-28T19:26:25.110Z,9.23
2022-11-28T19:28:53.266Z,6.30
2022-11-28T19:31:23.376Z,6.10
2022-11-28T19:34:00.429Z,7.27
2022-11-28T19:36:31.823Z,7.00
2022-11-28T19:39:01.350Z,8.90
2022-11-28T19:41:30.323Z,5.60
2022-11-28T19:43:58.213Z,5.60
2022-11-28T19:46:31.923Z,5.40
2022-11-28T19:49:03.357Z,5.83
2022-11-28T19:51:31.192Z,4.17
2022-11-28T19:54:03.596Z,3.93
2022-11-28T19:56:32.527Z,4.03
2022-11-28T19:59:01.029Z,4.23
2022-11-28T20:01:29.249Z,5.20
2022-11-28T20:03:58.611Z,4.53
2022-11-28T20:06:28.259Z,5.53
2022-11-28T20:08:58.807Z,5.90
2022-11-28T20:11:30.186Z,5.40
2022-11-28T20:13:59.244Z,4.00
2022-11-28T20:16:28.941Z,4.00
2022-11-28T20:18:57.307Z,3.83
2022-11-28T20:21:25.186Z,3.07
2022-11-28T20:23:54.862Z,3.33
2022-11-28T20:26:26.262Z,3.80
2022-11-28T20:28:56.114Z,4.10
2022-11-28T20:31:26.547Z,3.20
2022-11-28T20:33:55.410Z,3.80
2022-11-28T20:36:25.055Z,4.33
2022-11-28T20:38:54.230Z,3.53
2022-11-28T20:41:23.789Z,3.10
2022-11-28T20:43:52.239Z,3.60
2022-11-28T20:46:23.213Z,3.60
2022-11-28T20:48:51.398Z,3.40
2022-11-28T20:51:20.699Z,3.57
2022-11-28T20:53:48.970Z,3.40
2022-11-28T20:56:19.878Z,3.43
2022-11-28T20:58:48.110Z,2.97
2022-11-28T21:01:18.068Z,3.30
2022-11-28T21:03:47.684Z,2.83
2022-11-28T21:06:15.682Z,4.10
2022-11-28T21:08:43.750Z,4.33
2022-11-28T21:11:30.501Z,4.17
2022-11-28T21:14:01.757Z,3.20
2022-11-28T21:16:32.103Z,4.20
2022-11-28T21:19:05.675Z,3.60
2022-11-28T21:21:35.159Z,3.60
2022-11-28T21:24:05.220Z,3.63
2022-11-28T21:26:40.726Z,3.80
2022-11-28T21:29:12.194Z,3.67
2022-11-28T21:31:42.890Z,3.60
2022-11-28T21:34:14.377Z,3.70
2022-11-28T21:36:42.963Z,2.87
2022-11-28T21:39:14.016Z,3.80
2022-11-28T21:41:41.991Z,3.90
2022-11-28T21:44:10.155Z,3.77
2022-11-28T21:46:38.040Z,4.60
2022-11-28T21:49:05.931Z,4.90
2022-11-28T21:51:35.370Z,6.13
2022-11-28T21:54:03.220Z,6.63
2022-11-28T21:56:31.188Z,6.93
2022-11-28T21:58:59.027Z,8.10
2022-11-28T22:01:26.926Z,10.20
2022-11-28T22:04:00.600Z,11.10
2022-11-28T22:06:30.168Z,11.73
2022-11-28T22:09:03.221Z,11.43
2022-11-28T22:11:33.598Z,12.87
2022-11-28T22:14:01.469Z,11.77
2022-11-28T22:16:30.505Z,10.50
2022-11-28T22:19:01.238Z,11.60
2022-11-28T22:21:51.546Z,11.20
2022-11-28T22:24:18.704Z,11.33
2022-11-28T22:26:46.581Z,11.87
2022-11-28T22:29:14.822Z,10.37
2022-11-28T22:31:42.785Z,9.77
2022-11-28T22:34:11.212Z,9.97
2022-11-28T22:36:39.252Z,10.57
2022-11-28T22:39:07.312Z,10.07
2022-11-28T22:41:36.540Z,10.37
2022-11-28T22:44:04.775Z,10.27
2022-11-28T22:46:33.345Z,10.10
2022-11-28T22:49:01.947Z,9.20
2022-11-28T22:51:30.725Z,9.07
2022-11-28T22:54:00.836Z,8.73
2022-11-28T22:56:29.758Z,9.27
2022-11-28T22:58:59.297Z,10.40
2022-11-28T23:01:29.598Z,9.97
2022-11-28T23:03:57.754Z,9.77
2022-11-28T23:06:27.839Z,10.03
2022-11-28T23:08:56.753Z,8.30
2022-11-28T23:11:27.995Z,10.67
2022-11-28T23:13:56.157Z,9.40
2022-11-28T23:16:27.531Z,10.20
2022-11-28T23:18:58.532Z,8.30
2022-11-28T23:21:29.428Z,10.00
2022-11-28T23:23:57.269Z,10.13
2022-11-28T23:26:26.702Z,10.73
2022-11-28T23:28:54.835Z,8.17
2022-11-28T23:31:26.301Z,9.50
2022-11-28T23:33:54.612Z,10.20
2022-11-28T23:36:24.516Z,9.53
2022-11-28T23:38:55.049Z,9.93
2022-11-28T23:41:23.252Z,8.73
2022-11-28T23:43:51.178Z,9.60
2022-11-28T23:46:20.532Z,9.73
2022-11-28T23:48:50.154Z,10.23
2022-11-28T23:51:20.234Z,9.37
2022-11-28T23:53:48.422Z,9.47
2022-11-28T23:56:18.198Z,9.17
2022-11-28T23:58:46.041Z,8.60
